Terminal Aerodrome Forecast
Issued by NWS Blacksburg, VA

Home | Current Version | Previous Version | Text Only | Print | Product List | Glossary On
Versions: 1 2 3 4 5 6 7 8 9 10 11 12 13 14 15 16 17 18 19 20 21 22 23
000
FTUS41 KRNK 292331
TAFLYH
TAF
KLYH 292331Z 3000/3024 04008KT P6SM BKN017
      TEMPO 3000/3002 SCT017 BKN250
     FM300300 04005KT P6SM SCT008 OVC012
     FM300700 03004KT 4SM BR OVC006
     FM301500 07006KT 6SM -DZ BR OVC008
     FM302100 09007KT 4SM -RA OVC012
     FM302300 09007KT 6SM -SHRA OVC015=

USA.gov is the U.S. government's official web portal to all federal, state and local government web resources and services.